sensor_id;sensor_type;location;lat;lon;timestamp;pressure;altitude;pressure_sealevel;temperature;humidity
18988;BME280;5494;51.796;10.952;2023-03-14T00:00:28;96590.75;;;11.10;100.00
18988;BME280;5494;51.796;10.952;2023-03-14T00:02:56;96600.31;;;11.09;100.00
18988;BME280;5494;51.796;10.952;2023-03-14T00:05:24;96600.88;;;11.03;100.00
18988;BME280;5494;51.796;10.952;2023-03-14T00:07:52;96598.53;;;11.10;100.00
18988;BME280;5494;51.796;10.952;2023-03-14T00:10:21;96566.25;;;11.12;100.00
18988;BME280;5494;51.796;10.952;2023-03-14T00:12:48;96562.69;;;11.03;100.00
18988;BME280;5494;51.796;10.952;2023-03-14T00:15:16;96550.13;;;10.99;100.00
18988;BME280;5494;51.796;10.952;2023-03-14T00:17:46;96566.25;;;11.02;100.00
18988;BME280;5494;51.796;10.952;2023-03-14T00:20:14;96561.44;;;11.07;100.00
18988;BME280;5494;51.796;10.952;2023-03-14T00:22:41;96568.84;;;11.02;100.00
18988;BME280;5494;51.796;10.952;2023-03-14T00:25:11;96590.22;;;10.96;100.00
18988;BME280;5494;51.796;10.952;2023-03-14T00:27:39;96593.50;;;10.89;100.00
18988;BME280;5494;51.796;10.952;2023-03-14T00:30:09;96589.53;;;10.94;100.00
18988;BME280;5494;51.796;10.952;2023-03-14T00:32:37;96598.16;;;10.85;100.00
18988;BME280;5494;51.796;10.952;2023-03-14T00:35:08;96595.56;;;10.76;100.00
18988;BME280;5494;51.796;10.952;2023-03-14T00:37:36;96618.00;;;10.67;100.00
18988;BME280;5494;51.796;10.952;2023-03-14T00:40:07;96622.78;;;10.62;100.00
18988;BME280;5494;51.796;10.952;2023-03-14T00:42:35;96624.28;;;10.64;100.00
18988;BME280;5494;51.796;10.952;2023-03-14T00:45:04;96627.69;;;10.75;100.00
18988;BME280;5494;51.796;10.952;2023-03-14T00:47:34;96637.00;;;10.68;100.00
18988;BME280;5494;51.796;10.952;2023-03-14T00:50:02;96638.78;;;10.67;100.00
18988;BME280;5494;51.796;10.952;2023-03-14T00:52:32;96631.09;;;10.65;100.00
18988;BME280;5494;51.796;10.952;2023-03-14T00:55:00;96640.00;;;10.63;100.00
18988;BME280;5494;51.796;10.952;2023-03-14T00:57:27;96646.28;;;10.60;100.00
18988;BME280;5494;51.796;10.952;2023-03-14T00:59:55;96658.06;;;10.55;100.00
18988;BME280;5494;51.796;10.952;2023-03-14T01:02:24;96668.97;;;10.49;100.00
18988;BME280;5494;51.796;10.952;2023-03-14T01:04:52;96682.41;;;10.63;100.00
18988;BME280;5494;51.796;10.952;2023-03-14T01:07:21;96687.31;;;10.57;100.00
18988;BME280;5494;51.796;10.952;2023-03-14T01:09:52;96671.03;;;10.55;100.00
18988;BME280;5494;51.796;10.952;2023-03-14T01:12:20;96667.22;;;10.69;100.00
18988;BME280;5494;51.796;10.952;2023-03-14T01:14:48;96689.25;;;10.74;100.00
18988;BME280;5494;51.796;10.952;2023-03-14T01:17:16;96691.72;;;10.76;100.00
18988;BME280;5494;51.796;10.952;2023-03-14T01:19:44;96673.66;;;10.74;100.00
18988;BME280;5494;51.796;10.952;2023-03-14T01:22:12;96680.09;;;10.70;100.00
18988;BME280;5494;51.796;10.952;2023-03-14T01:24:40;96669.94;;;10.67;100.00
18988;BME280;5494;51.796;10.952;2023-03-14T01:27:09;96657.78;;;10.68;100.00
18988;BME280;5494;51.796;10.952;2023-03-14T01:29:38;96653.25;;;10.60;100.00
18988;BME280;5494;51.796;10.952;2023-03-14T01:32:06;96637.69;;;10.60;100.00
18988;BME280;5494;51.796;10.952;2023-03-14T01:34:34;96651.38;;;10.72;100.00
18988;BME280;5494;51.796;10.952;2023-03-14T01:37:02;96655.88;;;10.70;100.00
18988;BME280;5494;51.796;10.952;2023-03-14T01:39:30;96644.66;;;10.69;100.00
18988;BME280;5494;51.796;10.952;2023-03-14T01:42:00;96633.59;;;10.57;100.00
18988;BME280;5494;51.796;10.952;2023-03-14T01:44:47;96606.63;;;10.58;100.00
18988;BME280;5494;51.796;10.952;2023-03-14T01:47:15;96600.06;;;10.54;100.00
18988;BME280;5494;51.796;10.952;2023-03-14T01:49:46;96585.88;;;10.49;100.00
18988;BME280;5494;51.796;10.952;2023-03-14T01:52:20;96574.66;;;10.48;100.00
18988;BME280;5494;51.796;10.952;2023-03-14T01:54:53;96563.72;;;10.54;100.00
18988;BME280;5494;51.796;10.952;2023-03-14T01:57:27;96568.91;;;10.64;100.00
18988;BME280;5494;51.796;10.952;2023-03-14T02:00:04;96551.69;;;10.53;100.00
18988;BME280;5494;51.796;10.952;2023-03-14T02:02:44;96553.31;;;10.54;100.00
18988;BME280;5494;51.796;10.952;2023-03-14T02:05:20;96554.69;;;10.49;100.00
18988;BME280;5494;51.796;10.952;2023-03-14T02:07:58;96573.13;;;10.46;100.00
18988;BME280;5494;51.796;10.952;2023-03-14T02:10:35;96572.47;;;10.63;100.00
18988;BME280;5494;51.796;10.952;2023-03-14T02:13:06;96562.47;;;10.78;100.00
18988;BME280;5494;51.796;10.952;2023-03-14T02:15:54;96571.22;;;10.77;100.00
18988;BME280;5494;51.796;10.952;2023-03-14T02:18:40;96555.38;;;10.70;100.00
18988;BME280;5494;51.796;10.952;2023-03-14T02:21:49;96547.44;;;10.62;100.00
18988;BME280;5494;51.796;10.952;2023-03-14T02:24:32;96550.31;;;10.69;100.00
18988;BME280;5494;51.796;10.952;2023-03-14T02:27:11;96550.44;;;10.67;100.00
18988;BME280;5494;51.796;10.952;2023-03-14T02:29:51;96541.41;;;10.52;100.00
18988;BME280;5494;51.796;10.952;2023-03-14T02:32:23;96532.53;;;10.45;100.00
18988;BME280;5494;51.796;10.952;2023-03-14T02:34:57;96524.91;;;10.34;100.00
18988;BME280;5494;51.796;10.952;2023-03-14T02:37:35;96525.97;;;10.31;100.00
18988;BME280;5494;51.796;10.952;2023-03-14T02:40:06;96516.69;;;10.29;100.00
18988;BME280;5494;51.796;10.952;2023-03-14T02:42:36;96508.47;;;10.23;100.00
18988;BME280;5494;51.796;10.952;2023-03-14T02:45:40;96503.53;;;10.11;100.00
18988;BME280;5494;51.796;10.952;2023-03-14T02:48:16;96501.13;;;10.29;100.00
18988;BME280;5494;51.796;10.952;2023-03-14T02:50:48;96514.59;;;10.13;100.00
18988;BME280;5494;51.796;10.952;2023-03-14T02:53:20;96503.00;;;10.17;100.00
18988;BME280;5494;51.796;10.952;2023-03-14T02:55:51;96490.72;;;10.19;100.00
18988;BME280;5494;51.796;10.952;2023-03-14T02:58:23;96499.47;;;10.27;100.00
18988;BME280;5494;51.796;10.952;2023-03-14T03:00:57;96492.78;;;10.25;100.00
18988;BME280;5494;51.796;10.952;2023-03-14T03:03:25;96501.78;;;10.31;100.00
18988;BME280;5494;51.796;10.952;2023-03-14T03:05:56;96503.59;;;10.30;100.00
18988;BME280;5494;51.796;10.952;2023-03-14T03:08:27;96484.72;;;10.28;100.00
18988;BME280;5494;51.796;10.952;2023-03-14T03:10:58;96490.97;;;10.16;100.00
18988;BME280;5494;51.796;10.952;2023-03-14T03:13:30;96476.63;;;10.02;100.00
18988;BME280;5494;51.796;10.952;2023-03-14T03:16:00;96476.22;;;10.07;100.00
18988;BME280;5494;51.796;10.952;2023-03-14T03:18:28;96474.59;;;10.15;100.00
18988;BME280;5494;51.796;10.952;2023-03-14T03:21:00;96468.00;;;10.11;100.00
18988;BME280;5494;51.796;10.952;2023-03-14T03:23:28;96444.94;;;9.99;100.00
18988;BME280;5494;51.796;10.952;2023-03-14T03:25:57;96444.94;;;9.99;100.00
18988;BME280;5494;51.796;10.952;2023-03-14T03:28:27;96440.69;;;10.07;100.00
18988;BME280;5494;51.796;10.952;2023-03-14T03:30:58;96446.44;;;10.01;100.00
18988;BME280;5494;51.796;10.952;2023-03-14T03:33:26;96448.09;;;10.02;100.00
18988;BME280;5494;51.796;10.952;2023-03-14T03:35:54;96465.00;;;10.06;100.00
18988;BME280;5494;51.796;10.952;2023-03-14T03:38:28;96449.56;;;10.05;100.00
18988;BME280;5494;51.796;10.952;2023-03-14T03:40:58;96451.09;;;10.07;100.00
18988;BME280;5494;51.796;10.952;2023-03-14T03:43:27;96445.75;;;10.09;100.00
18988;BME280;5494;51.796;10.952;2023-03-14T03:45:57;96444.38;;;10.05;100.00
18988;BME280;5494;51.796;10.952;2023-03-14T03:48:25;96455.88;;;10.02;100.00
18988;BME280;5494;51.796;10.952;2023-03-14T03:50:54;96444.50;;;10.03;100.00
18988;BME280;5494;51.796;10.952;2023-03-14T03:53:22;96445.34;;;10.04;100.00
18988;BME280;5494;51.796;10.952;2023-03-14T03:56:02;96430.19;;;9.99;100.00
18988;BME280;5494;51.796;10.952;2023-03-14T03:58:30;96432.66;;;10.01;100.00
18988;BME280;5494;51.796;10.952;2023-03-14T04:00:59;96436.44;;;9.97;100.00
18988;BME280;5494;51.796;10.952;2023-03-14T04:03:28;96431.13;;;10.08;100.00
18988;BME280;5494;51.796;10.952;2023-03-14T04:06:01;96425.13;;;10.07;100.00
18988;BME280;5494;51.796;10.952;2023-03-14T04:08:32;96429.38;;;10.08;100.00
18988;BME280;5494;51.796;10.952;2023-03-14T04:11:01;96431.13;;;10.08;100.00
18988;BME280;5494;51.796;10.952;2023-03-14T04:13:51;96423.50;;;10.16;100.00
18988;BME280;5494;51.796;10.952;2023-03-14T04:16:23;96410.50;;;10.16;100.00
18988;BME280;5494;51.796;10.952;2023-03-14T04:18:59;96421.03;;;10.14;100.00
18988;BME280;5494;51.796;10.952;2023-03-14T04:21:27;96413.78;;;10.08;100.00
18988;BME280;5494;51.796;10.952;2023-03-14T04:23:57;96412.41;;;10.04;100.00
18988;BME280;5494;51.796;10.952;2023-03-14T04:26:29;96406.28;;;10.05;100.00
18988;BME280;5494;51.796;10.952;2023-03-14T04:28:56;96407.50;;;10.01;100.00
18988;BME280;5494;51.796;10.952;2023-03-14T04:31:26;96389.06;;;10.04;100.00
18988;BME280;5494;51.796;10.952;2023-03-14T04:33:54;96397.78;;;10.03;100.00
18988;BME280;5494;51.796;10.952;2023-03-14T04:36:29;96380.72;;;10.10;100.00
18988;BME280;5494;51.796;10.952;2023-03-14T04:39:02;96385.81;;;10.02;100.00
18988;BME280;5494;51.796;10.952;2023-03-14T04:41:31;96378.13;;;10.10;100.00
18988;BME280;5494;51.796;10.952;2023-03-14T04:43:59;96380.44;;;10.04;100.00
18988;BME280;5494;51.796;10.952;2023-03-14T04:46:28;96407.66;;;10.00;100.00
18988;BME280;5494;51.796;10.952;2023-03-14T04:48:57;96402.47;;;10.09;100.00
18988;BME280;5494;51.796;10.952;2023-03-14T04:51:25;96413.94;;;10.07;100.00
18988;BME280;5494;51.796;10.952;2023-03-14T04:53:54;96418.97;;;10.08;100.00
18988;BME280;5494;51.796;10.952;2023-03-14T04:56:23;96410.25;;;10.00;100.00
18988;BME280;5494;51.796;10.952;2023-03-14T04:58:52;96414.75;;;9.98;100.00
18988;BME280;5494;51.796;10.952;2023-03-14T05:01:20;96421.16;;;10.03;100.00
18988;BME280;5494;51.796;10.952;2023-03-14T05:04:03;96409.44;;;10.09;100.00
18988;BME280;5494;51.796;10.952;2023-03-14T05:06:53;96404.38;;;10.07;100.00
18988;BME280;5494;51.796;10.952;2023-03-14T05:09:28;96408.31;;;10.11;100.00
18988;BME280;5494;51.796;10.952;2023-03-14T05:12:19;96415.56;;;10.08;100.00
18988;BME280;5494;51.796;10.952;2023-03-14T05:15:19;96416.53;;;10.26;100.00
18988;BME280;5494;51.796;10.952;2023-03-14T05:17:59;96398.63;;;10.13;100.00
18988;BME280;5494;51.796;10.952;2023-03-14T05:20:50;96412.53;;;10.12;100.00
18988;BME280;5494;51.796;10.952;2023-03-14T05:23:41;96393.44;;;10.13;100.00
18988;BME280;5494;51.796;10.952;2023-03-14T05:26:16;96410.25;;;10.19;100.00
18988;BME280;5494;51.796;10.952;2023-03-14T05:29:01;96391.53;;;10.15;100.00
18988;BME280;5494;51.796;10.952;2023-03-14T05:31:35;96400.25;;;10.14;100.00
18988;BME280;5494;51.796;10.952;2023-03-14T05:34:23;96387.28;;;10.24;100.00
18988;BME280;5494;51.796;10.952;2023-03-14T05:37:22;96400.25;;;10.34;100.00
18988;BME280;5494;51.796;10.952;2023-03-14T05:40:04;96414.22;;;10.23;100.00
18988;BME280;5494;51.796;10.952;2023-03-14T05:42:39;96408.75;;;10.26;100.00
18988;BME280;5494;51.796;10.952;2023-03-14T05:45:18;96403.13;;;10.31;100.00
18988;BME280;5494;51.796;10.952;2023-03-14T05:48:01;96405.72;;;10.40;100.00
18988;BME280;5494;51.796;10.952;2023-03-14T05:50:39;96400.50;;;10.40;100.00
18988;BME280;5494;51.796;10.952;2023-03-14T05:53:31;96402.16;;;10.41;100.00
18988;BME280;5494;51.796;10.952;2023-03-14T05:56:32;96403.13;;;10.31;100.00
18988;BME280;5494;51.796;10.952;2023-03-14T05:59:04;96401.78;;;10.26;100.00
18988;BME280;5494;51.796;10.952;2023-03-14T06:01:54;96396.97;;;10.32;100.00
18988;BME280;5494;51.796;10.952;2023-03-14T06:04:25;96420.50;;;10.30;100.00
18988;BME280;5494;51.796;10.952;2023-03-14T06:06:57;96432.78;;;10.28;100.00
18988;BME280;5494;51.796;10.952;2023-03-14T06:09:27;96412.59;;;10.22;100.00
18988;BME280;5494;51.796;10.952;2023-03-14T06:11:58;96415.97;;;10.13;100.00
18988;BME280;5494;51.796;10.952;2023-03-14T06:14:30;96411.72;;;10.12;100.00
18988;BME280;5494;51.796;10.952;2023-03-14T06:16:58;96413.38;;;10.03;100.00
18988;BME280;5494;51.796;10.952;2023-03-14T06:19:30;96423.09;;;10.20;100.00
18988;BME280;5494;51.796;10.952;2023-03-14T06:21:58;96423.09;;;10.20;100.00
18988;BME280;5494;51.796;10.952;2023-03-14T06:24:27;96431.16;;;10.27;100.00
18988;BME280;5494;51.796;10.952;2023-03-14T06:26:56;96433.31;;;10.32;100.00
18988;BME280;5494;51.796;10.952;2023-03-14T06:29:24;96443.56;;;10.43;100.00
18988;BME280;5494;51.796;10.952;2023-03-14T06:31:52;96442.44;;;10.45;100.00
18988;BME280;5494;51.796;10.952;2023-03-14T06:34:20;96445.56;;;10.58;99.69
18988;BME280;5494;51.796;10.952;2023-03-14T06:36:48;96446.00;;;10.63;100.00
18988;BME280;5494;51.796;10.952;2023-03-14T06:39:16;96440.09;;;10.71;99.31
18988;BME280;5494;51.796;10.952;2023-03-14T06:41:49;96444.16;;;10.83;98.35
18988;BME280;5494;51.796;10.952;2023-03-14T06:44:18;96443.97;;;10.94;97.39
18988;BME280;5494;51.796;10.952;2023-03-14T06:46:46;96436.56;;;10.99;96.14
18988;BME280;5494;51.796;10.952;2023-03-14T06:49:15;96434.59;;;11.11;95.22
18988;BME280;5494;51.796;10.952;2023-03-14T06:51:43;96427.06;;;11.18;93.62
18988;BME280;5494;51.796;10.952;2023-03-14T06:54:11;96413.59;;;11.50;92.10
18988;BME280;5494;51.796;10.952;2023-03-14T06:56:40;96428.00;;;11.89;89.87
18988;BME280;5494;51.796;10.952;2023-03-14T06:59:10;96428.56;;;12.36;85.09
18988;BME280;5494;51.796;10.952;2023-03-14T07:01:39;96408.91;;;12.68;83.02
18988;BME280;5494;51.796;10.952;2023-03-14T07:04:10;96419.94;;;13.13;80.27
18988;BME280;5494;51.796;10.952;2023-03-14T07:06:43;96411.66;;;13.76;76.01
18988;BME280;5494;51.796;10.952;2023-03-14T07:09:13;96416.56;;;13.95;74.27
18988;BME280;5494;51.796;10.952;2023-03-14T07:11:47;96403.50;;;14.19;71.90
18988;BME280;5494;51.796;10.952;2023-03-14T07:14:18;96400.94;;;14.44;69.95
18988;BME280;5494;51.796;10.952;2023-03-14T07:16:48;96414.75;;;14.85;68.63
18988;BME280;5494;51.796;10.952;2023-03-14T07:19:18;96402.47;;;14.93;65.81
18988;BME280;5494;51.796;10.952;2023-03-14T07:21:45;96408.03;;;14.74;65.87
18988;BME280;5494;51.796;10.952;2023-03-14T07:24:16;96407.44;;;14.48;67.67
18988;BME280;5494;51.796;10.952;2023-03-14T07:26:44;96401.06;;;14.26;67.85
18988;BME280;5494;51.796;10.952;2023-03-14T07:29:11;96393.38;;;14.33;68.25
18988;BME280;5494;51.796;10.952;2023-03-14T07:31:41;96388.25;;;14.80;66.75
18988;BME280;5494;51.796;10.952;2023-03-14T07:34:10;96390.78;;;15.12;64.89
18988;BME280;5494;51.796;10.952;2023-03-14T07:36:42;96387.28;;;15.28;62.29
18988;BME280;5494;51.796;10.952;2023-03-14T07:39:10;96389.41;;;15.63;60.36
18988;BME280;5494;51.796;10.952;2023-03-14T07:41:57;96380.09;;;16.29;57.21
18988;BME280;5494;51.796;10.952;2023-03-14T07:44:53;96383.44;;;16.00;57.31
18988;BME280;5494;51.796;10.952;2023-03-14T07:47:22;96394.91;;;16.22;58.67
18988;BME280;5494;51.796;10.952;2023-03-14T07:49:50;96379.69;;;16.55;55.74
18988;BME280;5494;51.796;10.952;2023-03-14T07:52:18;96412.78;;;15.96;57.91
18988;BME280;5494;51.796;10.952;2023-03-14T07:54:46;96422.16;;;15.90;57.84
18988;BME280;5494;51.796;10.952;2023-03-14T07:57:14;96424.34;;;15.48;59.37
18988;BME280;5494;51.796;10.952;2023-03-14T07:59:42;96435.25;;;15.20;61.89
18988;BME280;5494;51.796;10.952;2023-03-14T08:02:11;96437.31;;;14.86;63.66
18988;BME280;5494;51.796;10.952;2023-03-14T08:04:41;96448.75;;;14.69;64.08
18988;BME280;5494;51.796;10.952;2023-03-14T08:07:09;96431.28;;;14.69;63.78
18988;BME280;5494;51.796;10.952;2023-03-14T08:09:38;96426.88;;;14.45;65.65
18988;BME280;5494;51.796;10.952;2023-03-14T08:12:06;96447.63;;;14.39;66.71
18988;BME280;5494;51.796;10.952;2023-03-14T08:14:34;96426.88;;;14.29;67.42
18988;BME280;5494;51.796;10.952;2023-03-14T08:17:02;96444.16;;;14.06;67.92
18988;BME280;5494;51.796;10.952;2023-03-14T08:19:31;96439.44;;;14.09;68.47
18988;BME280;5494;51.796;10.952;2023-03-14T08:22:00;96438.13;;;14.05;69.73
18988;BME280;5494;51.796;10.952;2023-03-14T08:24:29;96448.25;;;14.08;69.87
18988;BME280;5494;51.796;10.952;2023-03-14T08:26:58;96442.34;;;13.82;69.89
18988;BME280;5494;51.796;10.952;2023-03-14T08:29:26;96440.97;;;13.70;71.20
18988;BME280;5494;51.796;10.952;2023-03-14T08:31:54;96436.41;;;13.64;70.25
18988;BME280;5494;51.796;10.952;2023-03-14T08:34:23;96435.13;;;13.68;71.30
18988;BME280;5494;51.796;10.952;2023-03-14T08:36:51;96429.53;;;13.63;72.32
18988;BME280;5494;51.796;10.952;2023-03-14T08:39:20;96418.63;;;13.59;72.77
18988;BME280;5494;51.796;10.952;2023-03-14T08:41:49;96411.28;;;13.63;72.39
18988;BME280;5494;51.796;10.952;2023-03-14T08:44:17;96411.81;;;13.74;71.36
18988;BME280;5494;51.796;10.952;2023-03-14T08:46:47;96412.28;;;13.78;73.65
18988;BME280;5494;51.796;10.952;2023-03-14T08:49:15;96397.63;;;13.93;72.83
18988;BME280;5494;51.796;10.952;2023-03-14T08:51:43;96409.66;;;13.62;75.80
18988;BME280;5494;51.796;10.952;2023-03-14T08:54:11;96403.44;;;13.55;78.42
18988;BME280;5494;51.796;10.952;2023-03-14T08:56:40;96390.41;;;13.55;78.54
18988;BME280;5494;51.796;10.952;2023-03-14T08:59:08;96393.38;;;14.00;77.61
18988;BME280;5494;51.796;10.952;2023-03-14T09:01:37;96376.22;;;14.54;74.51
18988;BME280;5494;51.796;10.952;2023-03-14T09:04:05;96373.50;;;14.95;70.19
18988;BME280;5494;51.796;10.952;2023-03-14T09:06:33;96376.72;;;15.44;67.20
18988;BME280;5494;51.796;10.952;2023-03-14T09:09:02;96375.88;;;15.83;64.14
18988;BME280;5494;51.796;10.952;2023-03-14T09:11:30;96357.06;;;16.02;62.61
18988;BME280;5494;51.796;10.952;2023-03-14T09:14:00;96364.34;;;16.29;62.12
18988;BME280;5494;51.796;10.952;2023-03-14T09:16:28;96370.94;;;16.63;59.98
18988;BME280;5494;51.796;10.952;2023-03-14T09:19:01;96371.22;;;16.68;59.31
18988;BME280;5494;51.796;10.952;2023-03-14T09:21:30;96373.94;;;17.04;58.56
18988;BME280;5494;51.796;10.952;2023-03-14T09:23:58;96379.66;;;17.07;57.04
18988;BME280;5494;51.796;10.952;2023-03-14T09:26:26;96384.44;;;17.18;57.22
18988;BME280;5494;51.796;10.952;2023-03-14T09:28:54;96392.22;;;17.26;55.99
18988;BME280;5494;51.796;10.952;2023-03-14T09:31:25;96406.81;;;17.14;55.46
18988;BME280;5494;51.796;10.952;2023-03-14T09:33:55;96399.75;;;17.00;55.02
18988;BME280;5494;51.796;10.952;2023-03-14T09:36:23;96420.19;;;17.05;56.18
18988;BME280;5494;51.796;10.952;2023-03-14T09:38:51;96421.53;;;17.15;55.65
18988;BME280;5494;51.796;10.952;2023-03-14T09:41:25;96434.31;;;17.18;55.48
18988;BME280;5494;51.796;10.952;2023-03-14T09:44:02;96430.94;;;16.66;57.08
18988;BME280;5494;51.796;10.952;2023-03-14T09:46:35;96436.06;;;16.13;57.61
18988;BME280;5494;51.796;10.952;2023-03-14T09:49:12;96436.72;;;16.38;57.99
18988;BME280;5494;51.796;10.952;2023-03-14T09:51:43;96441.16;;;16.15;57.60
18988;BME280;5494;51.796;10.952;2023-03-14T09:54:30;96453.56;;;16.21;59.56
18988;BME280;5494;51.796;10.952;2023-03-14T09:56:58;96452.63;;;16.14;59.26
18988;BME280;5494;51.796;10.952;2023-03-14T09:59:28;96459.13;;;15.64;59.96
18988;BME280;5494;51.796;10.952;2023-03-14T10:02:01;96466.22;;;15.56;61.43
18988;BME280;5494;51.796;10.952;2023-03-14T10:04:30;96473.44;;;15.46;62.31
18988;BME280;5494;51.796;10.952;2023-03-14T10:06:59;96484.41;;;15.41;62.61
18988;BME280;5494;51.796;10.952;2023-03-14T10:09:30;96467.41;;;15.37;62.10
18988;BME280;5494;51.796;10.952;2023-03-14T10:11:58;96465.81;;;15.28;61.99
18988;BME280;5494;51.796;10.952;2023-03-14T10:14:33;96475.19;;;15.14;62.08
18988;BME280;5494;51.796;10.952;2023-03-14T10:17:09;96465.50;;;15.15;62.46
18988;BME280;5494;51.796;10.952;2023-03-14T10:19:37;96477.69;;;14.67;65.52
18988;BME280;5494;51.796;10.952;2023-03-14T10:22:18;96483.41;;;14.63;66.39
18988;BME280;5494;51.796;10.952;2023-03-14T10:24:53;96477.22;;;14.55;67.99
18988;BME280;5494;51.796;10.952;2023-03-14T10:27:29;96466.59;;;14.49;68.55
18988;BME280;5494;51.796;10.952;2023-03-14T10:29:59;96474.91;;;14.69;68.15
18988;BME280;5494;51.796;10.952;2023-03-14T10:32:34;96472.44;;;14.91;67.18
18988;BME280;5494;51.796;10.952;2023-03-14T10:35:19;96480.75;;;15.03;65.13
18988;BME280;5494;51.796;10.952;2023-03-14T10:37:55;96478.41;;;15.16;65.27
18988;BME280;5494;51.796;10.952;2023-03-14T10:40:28;96480.84;;;15.34;64.60
18988;BME280;5494;51.796;10.952;2023-03-14T10:42:59;96483.72;;;14.92;64.80
18988;BME280;5494;51.796;10.952;2023-03-14T10:45:37;96472.59;;;14.98;65.57
18988;BME280;5494;51.796;10.952;2023-03-14T10:48:21;96473.41;;;14.98;65.51
18988;BME280;5494;51.796;10.952;2023-03-14T10:50:56;96461.84;;;14.77;66.45
18988;BME280;5494;51.796;10.952;2023-03-14T10:53:25;96469.03;;;14.42;68.15
18988;BME280;5494;51.796;10.952;2023-03-14T10:55:55;96464.75;;;14.09;71.22
18988;BME280;5494;51.796;10.952;2023-03-14T10:58:27;96461.25;;;13.84;74.41
18988;BME280;5494;51.796;10.952;2023-03-14T11:01:14;96456.03;;;13.84;76.57
18988;BME280;5494;51.796;10.952;2023-03-14T11:03:52;96445.31;;;13.95;76.22
18988;BME280;5494;51.796;10.952;2023-03-14T11:06:32;96446.44;;;13.93;74.25
18988;BME280;5494;51.796;10.952;2023-03-14T11:09:15;96446.78;;;14.14;74.58
18988;BME280;5494;51.796;10.952;2023-03-14T11:11:47;96445.16;;;14.21;72.62
18988;BME280;5494;51.796;10.952;2023-03-14T11:14:28;96437.63;;;14.26;71.35
18988;BME280;5494;51.796;10.952;2023-03-14T11:17:02;96450.03;;;14.32;71.13
18988;BME280;5494;51.796;10.952;2023-03-14T11:19:57;96445.16;;;14.45;70.63
18988;BME280;5494;51.796;10.952;2023-03-14T11:22:41;96440.59;;;14.55;71.10
18988;BME280;5494;51.796;10.952;2023-03-14T11:25:21;96449.28;;;14.56;73.75
18988;BME280;5494;51.796;10.952;2023-03-14T11:28:03;96456.44;;;14.54;75.93
18988;BME280;5494;51.796;10.952;2023-03-14T11:30:42;96447.78;;;14.45;79.06
18988;BME280;5494;51.796;10.952;2023-03-14T11:33:16;96450.09;;;14.48;81.53
18988;BME280;5494;51.796;10.952;2023-03-14T11:35:55;96442.56;;;14.62;78.53
18988;BME280;5494;51.796;10.952;2023-03-14T11:38:34;96449.06;;;14.33;76.71
18988;BME280;5494;51.796;10.952;2023-03-14T11:41:13;96451.22;;;14.30;77.09
18988;BME280;5494;51.796;10.952;2023-03-14T11:43:48;96431.78;;;14.40;76.81
18988;BME280;5494;51.796;10.952;2023-03-14T11:46:25;96416.59;;;14.52;71.99
18988;BME280;5494;51.796;10.952;2023-03-14T11:49:04;96435.06;;;14.42;74.07
18988;BME280;5494;51.796;10.952;2023-03-14T11:51:41;96433.75;;;14.54;73.56
18988;BME280;5494;51.796;10.952;2023-03-14T11:54:21;96448.44;;;14.64;72.73
18988;BME280;5494;51.796;10.952;2023-03-14T11:57:01;96447.13;;;14.59;73.57
18988;BME280;5494;51.796;10.952;2023-03-14T11:59:44;96430.97;;;14.64;72.02
18988;BME280;5494;51.796;10.952;2023-03-14T12:02:24;96447.13;;;14.76;72.53
18988;BME280;5494;51.796;10.952;2023-03-14T12:05:25;96432.91;;;14.70;72.06
18988;BME280;5494;51.796;10.952;2023-03-14T12:08:33;96435.53;;;14.46;80.64
18988;BME280;5494;51.796;10.952;2023-03-14T12:11:14;96444.03;;;14.40;84.34
18988;BME280;5494;51.796;10.952;2023-03-14T12:13:49;96446.63;;;14.15;84.40
18988;BME280;5494;51.796;10.952;2023-03-14T12:16:35;96443.00;;;14.00;88.39
18988;BME280;5494;51.796;10.952;2023-03-14T12:19:34;96437.47;;;14.03;88.03
18988;BME280;5494;51.796;10.952;2023-03-14T12:22:28;96432.91;;;14.22;90.61
18988;BME280;5494;51.796;10.952;2023-03-14T12:25:04;96422.00;;;14.50;89.13
18988;BME280;5494;51.796;10.952;2023-03-14T12:28:14;96424.75;;;14.65;82.85
18988;BME280;5494;51.796;10.952;2023-03-14T12:30:43;96413.28;;;14.74;77.36
18988;BME280;5494;51.796;10.952;2023-03-14T12:33:37;96420.44;;;14.96;78.75
18988;BME280;5494;51.796;10.952;2023-03-14T12:39:27;96400.63;;;15.02;74.17
18988;BME280;5494;51.796;10.952;2023-03-14T12:42:09;96403.84;;;15.20;73.58
18988;BME280;5494;51.796;10.952;2023-03-14T12:44:44;96413.38;;;15.44;70.63
18988;BME280;5494;51.796;10.952;2023-03-14T12:50:41;96410.41;;;15.47;68.23
18988;BME280;5494;51.796;10.952;2023-03-14T12:53:42;96404.69;;;15.44;68.05
18988;BME280;5494;51.796;10.952;2023-03-14T12:56:27;96400.94;;;15.54;68.67
18988;BME280;5494;51.796;10.952;2023-03-14T12:59:17;96421.88;;;15.54;70.43
18988;BME280;5494;51.796;10.952;2023-03-14T13:01:55;96415.69;;;15.39;70.76
18988;BME280;5494;51.796;10.952;2023-03-14T13:04:32;96425.19;;;15.40;73.60
18988;BME280;5494;51.796;10.952;2023-03-14T13:07:12;96431.84;;;15.12;78.49
18988;BME280;5494;51.796;10.952;2023-03-14T13:10:17;96460.69;;;14.63;84.10
18988;BME280;5494;51.796;10.952;2023-03-14T13:12:51;96477.38;;;14.38;85.97
18988;BME280;5494;51.796;10.952;2023-03-14T13:15:26;96532.22;;;14.30;91.87
18988;BME280;5494;51.796;10.952;2023-03-14T13:18:01;96520.22;;;13.01;89.84
18988;BME280;5494;51.796;10.952;2023-03-14T13:20:34;96573.69;;;11.34;92.55
18988;BME280;5494;51.796;10.952;2023-03-14T13:23:04;96578.22;;;9.98;100.00
18988;BME280;5494;51.796;10.952;2023-03-14T13:25:34;96616.78;;;9.11;100.00
18988;BME280;5494;51.796;10.952;2023-03-14T13:28:05;96633.41;;;8.45;100.00
18988;BME280;5494;51.796;10.952;2023-03-14T13:30:40;96637.00;;;8.10;100.00
18988;BME280;5494;51.796;10.952;2023-03-14T13:33:15;96661.13;;;7.77;100.00
18988;BME280;5494;51.796;10.952;2023-03-14T13:35:48;96672.31;;;7.67;100.00